createdAt,value
2019-02-06T00:00:33.749Z,87.67
2019-02-06T00:03:05.567Z,91.80
2019-02-06T00:05:36.790Z,82.87
2019-02-06T00:08:07.932Z,66.97
2019-02-06T00:10:39.261Z,87.63
2019-02-06T00:13:10.447Z,93.50
2019-02-06T00:15:44.917Z,98.37
2019-02-06T00:18:16.496Z,78.40
2019-02-06T00:20:47.753Z,98.60
2019-02-06T00:23:18.949Z,89.90
2019-02-06T00:25:50.160Z,90.97
2019-02-06T00:28:21.354Z,92.50
2019-02-06T00:30:53.008Z,86.30
2019-02-06T00:33:24.231Z,87.40
2019-02-06T00:35:55.392Z,78.27
2019-02-06T00:38:26.568Z,92.07
2019-02-06T00:40:57.821Z,83.60
2019-02-06T00:43:30.563Z,93.10
2019-02-06T00:46:01.833Z,93.37
2019-02-06T00:48:33.034Z,84.77
2019-02-06T00:51:04.196Z,88.47
2019-02-06T00:53:35.395Z,82.03
2019-02-06T00:56:06.953Z,89.57
2019-02-06T00:58:38.140Z,94.97
2019-02-06T01:01:09.422Z,95.17
2019-02-06T01:03:40.833Z,99.03
2019-02-06T01:06:12.103Z,74.70
2019-02-06T01:08:43.834Z,78.27
2019-02-06T01:11:15.017Z,84.77
2019-02-06T01:13:46.217Z,56.83
2019-02-06T01:16:18.922Z,80.73
2019-02-06T01:18:50.147Z,82.67
2019-02-06T01:21:23.107Z,76.37
2019-02-06T01:23:59.392Z,73.50
2019-02-06T01:26:30.577Z,83.03
2019-02-06T01:29:01.791Z,76.37
2019-02-06T01:31:35.013Z,83.63
2019-02-06T01:34:06.581Z,74.93
2019-02-06T01:36:37.872Z,65.20
2019-02-06T01:39:10.645Z,76.17
2019-02-06T01:41:42.033Z,82.03
2019-02-06T01:44:13.232Z,72.03
2019-02-06T01:46:44.507Z,71.43
2019-02-06T01:49:15.599Z,69.67
2019-02-06T01:51:46.866Z,79.37
2019-02-06T01:54:18.047Z,77.90
2019-02-06T01:56:49.275Z,66.97
2019-02-06T01:59:20.932Z,74.60
2019-02-06T02:01:52.496Z,78.37
2019-02-06T02:04:23.828Z,73.80
2019-02-06T02:06:55.097Z,72.47
2019-02-06T02:09:26.306Z,72.90
2019-02-06T02:11:57.577Z,73.20
2019-02-06T02:14:29.307Z,63.27
2019-02-06T02:17:01.171Z,66.67
2019-02-06T02:19:32.502Z,80.00
2019-02-06T02:22:03.777Z,73.73
2019-02-06T02:24:34.981Z,81.53
2019-02-06T02:27:06.541Z,69.50
2019-02-06T02:29:37.746Z,70.33
2019-02-06T02:32:13.001Z,80.97
2019-02-06T02:34:44.250Z,75.13
2019-02-06T02:37:15.536Z,68.20
2019-02-06T02:39:48.012Z,73.20
2019-02-06T02:42:19.264Z,83.77
2019-02-06T02:44:50.419Z,74.87
2019-02-06T02:47:21.652Z,76.87
2019-02-06T02:49:52.862Z,76.77
2019-02-06T02:52:24.572Z,74.97
2019-02-06T02:54:55.794Z,82.97
2019-02-06T02:57:28.075Z,84.43
2019-02-06T02:59:59.277Z,77.93
2019-02-06T03:02:34.576Z,80.13
2019-02-06T03:08:26.341Z,87.47
2019-02-06T03:10:57.565Z,94.90
2019-02-06T03:13:28.735Z,93.00
2019-02-06T03:15:59.963Z,91.90
2019-02-06T03:18:31.208Z,79.13
2019-02-06T03:21:02.462Z,88.13
2019-02-06T03:23:33.625Z,83.03
2019-02-06T03:26:04.760Z,92.67
2019-02-06T03:28:36.012Z,79.83
2019-02-06T03:31:08.698Z,98.33
2019-02-06T03:33:40.001Z,87.73
2019-02-06T03:36:11.274Z,83.30
2019-02-06T03:38:42.547Z,80.27
2019-02-06T03:41:14.655Z,67.03
2019-02-06T03:43:45.912Z,71.63
2019-02-06T03:46:17.131Z,60.50
2019-02-06T03:48:48.767Z,61.43
2019-02-06T03:51:19.996Z,65.93
2019-02-06T03:53:51.261Z,75.73
2019-02-06T03:56:22.467Z,64.97
2019-02-06T03:58:55.171Z,63.60
2019-02-06T04:01:26.766Z,71.67
2019-02-06T04:03:58.034Z,58.23
2019-02-06T04:06:29.230Z,62.00
2019-02-06T04:09:00.477Z,60.57
2019-02-06T04:11:31.677Z,57.37
2019-02-06T04:14:02.949Z,40.20
2019-02-06T04:16:34.153Z,59.63
2019-02-06T04:19:05.401Z,63.47
2019-02-06T04:21:36.521Z,56.27
2019-02-06T04:24:09.217Z,59.00
2019-02-06T04:26:40.427Z,60.30
2019-02-06T04:29:14.784Z,61.70
2019-02-06T04:31:46.001Z,59.30
2019-02-06T04:34:19.906Z,57.27
2019-02-06T04:36:51.120Z,56.53
2019-02-06T04:39:22.592Z,57.57
2019-02-06T04:41:56.274Z,57.93
2019-02-06T04:44:27.536Z,62.30
2019-02-06T04:47:19.007Z,55.97
2019-02-06T04:49:50.213Z,48.70
2019-02-06T04:52:21.450Z,62.30
2019-02-06T04:54:52.647Z,65.07
2019-02-06T04:57:24.013Z,55.90
2019-02-06T04:59:55.221Z,62.07
2019-02-06T05:02:27.471Z,60.47
2019-02-06T05:04:58.904Z,63.00
2019-02-06T05:07:30.153Z,56.03
2019-02-06T05:10:01.383Z,61.77
2019-02-06T05:12:34.312Z,66.30
2019-02-06T05:15:07.008Z,68.43
2019-02-06T05:17:38.303Z,65.90
2019-02-06T05:20:24.574Z,74.63
2019-02-06T05:22:55.839Z,71.03
2019-02-06T05:25:28.899Z,72.97
2019-02-06T05:28:00.117Z,74.53
2019-02-06T05:30:31.346Z,73.93
2019-02-06T05:33:02.608Z,75.50
2019-02-06T05:35:33.857Z,70.47
2019-02-06T05:38:06.141Z,70.70
2019-02-06T05:40:37.252Z,69.50
2019-02-06T05:43:08.577Z,69.03
2019-02-06T05:49:12.420Z,64.30
2019-02-06T05:51:43.574Z,69.93
2019-02-06T05:54:16.291Z,72.67
2019-02-06T05:56:47.560Z,68.43
2019-02-06T05:59:18.812Z,75.63
2019-02-06T06:01:49.966Z,74.10
2019-02-06T06:04:21.154Z,74.23
2019-02-06T06:09:59.817Z,69.67
2019-02-06T06:12:36.770Z,70.63
2019-02-06T06:15:09.592Z,71.50
2019-02-06T06:17:40.843Z,76.03
2019-02-06T06:20:14.310Z,70.67
2019-02-06T06:22:47.132Z,69.50
2019-02-06T06:25:19.828Z,73.10
2019-02-06T06:27:52.573Z,71.13
2019-02-06T06:30:24.319Z,85.30
2019-02-06T06:33:06.034Z,78.67
2019-02-06T06:35:37.275Z,77.77
2019-02-06T06:38:09.857Z,79.87
2019-02-06T06:40:41.091Z,79.17
2019-02-06T06:43:16.333Z,72.87
2019-02-06T06:45:56.071Z,66.43
2019-02-06T06:48:28.997Z,69.27
2019-02-06T06:51:00.291Z,73.57
2019-02-06T06:53:31.551Z,67.50
2019-02-06T06:56:02.794Z,73.20
2019-02-06T06:58:35.481Z,72.40
2019-02-06T07:01:10.691Z,77.70
2019-02-06T07:03:39.591Z,86.77
2019-02-06T07:06:10.869Z,85.33
2019-02-06T07:08:42.102Z,93.40
2019-02-06T07:11:14.966Z,80.10
2019-02-06T07:13:46.172Z,72.93
2019-02-06T07:16:20.924Z,78.53
2019-02-06T07:18:56.500Z,89.40
2019-02-06T07:21:31.903Z,94.67
2019-02-06T07:41:58.964Z,60.53
2019-02-06T07:44:30.191Z,74.13
2019-02-06T07:47:04.163Z,68.93
2019-02-06T07:49:38.439Z,78.60
2019-02-06T07:52:09.753Z,103.53
2019-02-06T07:54:41.611Z,99.03
2019-02-06T07:57:12.888Z,83.10
2019-02-06T07:59:49.434Z,85.13
2019-02-06T08:02:19.554Z,74.30
2019-02-06T08:04:50.779Z,65.50
2019-02-06T08:07:22.071Z,66.37
2019-02-06T08:09:53.294Z,61.97
2019-02-06T08:12:30.044Z,60.07
2019-02-06T08:15:01.270Z,62.73
2019-02-06T08:17:34.238Z,65.03
2019-02-06T08:20:08.501Z,67.83
2019-02-06T08:25:24.327Z,72.87
2019-02-06T08:27:55.550Z,67.90
2019-02-06T08:30:29.689Z,62.33
2019-02-06T08:33:00.955Z,58.67
2019-02-06T08:35:33.611Z,78.20
2019-02-06T08:38:06.213Z,70.13
2019-02-06T08:40:37.453Z,71.63
2019-02-06T08:43:08.681Z,72.37
2019-02-06T08:45:45.363Z,69.53
2019-02-06T08:48:16.593Z,74.20
2019-02-06T08:50:47.824Z,57.70
2019-02-06T08:53:19.034Z,65.10
2019-02-06T09:13:29.053Z,77.87
2019-02-06T09:16:04.694Z,64.20
2019-02-06T09:18:37.442Z,66.17
2019-02-06T09:21:10.677Z,51.40
2019-02-06T09:29:30.833Z,66.17
2019-02-06T09:32:02.282Z,71.63
2019-02-06T09:34:33.486Z,43.20
2019-02-06T09:37:05.257Z,65.20
2019-02-06T09:39:36.562Z,73.43
2019-02-06T09:42:07.825Z,51.60
2019-02-06T09:44:39.335Z,65.77
2019-02-06T09:50:44.700Z,60.87
2019-02-06T09:53:15.916Z,56.93
2019-02-06T09:55:58.682Z,62.27
2019-02-06T09:58:32.592Z,57.67
2019-02-06T10:13:47.107Z,64.20
2019-02-06T10:16:20.144Z,60.73
2019-02-06T10:18:51.174Z,62.47
2019-02-06T10:21:22.391Z,57.20
2019-02-06T10:23:53.665Z,71.27
2019-02-06T10:26:24.878Z,53.63
2019-02-06T10:28:56.046Z,63.27
2019-02-06T10:31:27.313Z,53.13
2019-02-06T10:33:58.486Z,58.43
2019-02-06T10:36:29.989Z,45.67
2019-02-06T10:39:05.070Z,54.17
2019-02-06T10:41:39.059Z,51.27
2019-02-06T10:44:10.243Z,51.10
2019-02-06T10:46:43.155Z,48.77
2019-02-06T10:49:14.430Z,25.67
2019-02-06T10:51:45.612Z,38.90
2019-02-06T10:57:50.354Z,51.27
2019-02-06T11:03:24.174Z,57.03
2019-02-06T11:13:05.107Z,48.97
2019-02-06T11:16:14.435Z,47.80
2019-02-06T11:18:45.683Z,40.20
2019-02-06T11:21:18.334Z,44.50
2019-02-06T11:23:49.494Z,40.13
2019-02-06T11:26:20.679Z,36.77
2019-02-06T11:28:53.368Z,40.77
2019-02-06T11:41:04.270Z,43.07
2019-02-06T11:43:35.497Z,44.63
2019-02-06T11:46:09.011Z,41.03
2019-02-06T11:51:50.163Z,36.10
2019-02-06T11:54:22.875Z,39.20
2019-02-06T11:56:54.126Z,32.57
2019-02-06T11:59:25.341Z,37.73
2019-02-06T12:01:56.614Z,49.73
2019-02-06T12:04:27.793Z,46.03
2019-02-06T12:06:58.885Z,66.60
2019-02-06T12:09:30.530Z,53.43
2019-02-06T12:12:07.782Z,51.73
2019-02-06T12:18:09.743Z,42.20
2019-02-06T12:20:40.777Z,43.43
2019-02-06T12:23:11.972Z,50.80
2019-02-06T12:25:43.133Z,47.93
2019-02-06T12:28:14.291Z,45.33
2019-02-06T12:30:45.479Z,40.37
2019-02-06T12:33:16.665Z,41.63
2019-02-06T12:35:47.874Z,41.20
2019-02-06T12:38:19.234Z,41.60
2019-02-06T12:40:52.162Z,55.00
2019-02-06T12:43:23.464Z,49.27
2019-02-06T12:45:54.636Z,53.23
2019-02-06T12:48:25.873Z,53.87
2019-02-06T12:50:59.094Z,55.00
2019-02-06T12:53:36.062Z,54.60
2019-02-06T12:56:04.175Z,33.53
2019-02-06T12:58:35.443Z,55.60
2019-02-06T13:01:06.630Z,47.83
2019-02-06T13:03:37.796Z,43.93
2019-02-06T13:13:13.813Z,31.87
2019-02-06T13:15:47.216Z,44.27
2019-02-06T13:18:17.915Z,36.07
2019-02-06T13:20:51.223Z,21.30
2019-02-06T13:23:22.638Z,40.97
2019-02-06T13:25:53.843Z,40.30
2019-02-06T13:28:25.085Z,22.10
2019-02-06T13:30:56.287Z,27.20
2019-02-06T13:33:27.549Z,24.83
2019-02-06T13:35:58.806Z,56.00
2019-02-06T13:38:30.073Z,34.27
2019-02-06T13:41:02.667Z,46.07
2019-02-06T13:46:53.540Z,15.33
2019-02-06T13:49:33.844Z,28.23
2019-02-06T13:52:06.044Z,27.03
2019-02-06T13:54:37.243Z,21.77
2019-02-06T13:57:09.691Z,19.47
2019-02-06T13:59:40.874Z,18.70
2019-02-06T14:02:13.533Z,20.70
2019-02-06T14:11:34.734Z,25.03
2019-02-06T14:14:06.189Z,36.37
2019-02-06T14:16:46.856Z,24.07
2019-02-06T14:19:24.352Z,32.43
2019-02-06T14:21:57.218Z,21.20
2019-02-06T14:24:31.844Z,21.27
2019-02-06T14:27:16.993Z,30.30
2019-02-06T14:30:20.244Z,33.73
2019-02-06T14:33:16.921Z,60.60
2019-02-06T14:36:00.083Z,68.13
2019-02-06T14:38:43.678Z,38.80
2019-02-06T14:41:38.869Z,22.40
2019-02-06T14:44:44.776Z,29.40
2019-02-06T14:47:28.206Z,32.13
2019-02-06T14:50:14.866Z,26.33
2019-02-06T14:52:55.914Z,49.97
2019-02-06T14:55:36.422Z,39.93
2019-02-06T14:58:39.304Z,49.37
2019-02-06T15:01:16.149Z,40.30
2019-02-06T15:04:07.066Z,35.87
2019-02-06T15:06:46.951Z,43.03
2019-02-06T15:09:42.314Z,39.30
2019-02-06T15:12:32.054Z,26.43
2019-02-06T15:15:28.415Z,31.83
2019-02-06T15:18:14.627Z,32.67
2019-02-06T15:20:55.334Z,127.70
2019-02-06T15:23:54.243Z,137.57
2019-02-06T15:26:29.095Z,54.83
2019-02-06T15:29:20.177Z,45.03
2019-02-06T15:32:12.321Z,42.67
2019-02-06T15:35:01.606Z,50.50
2019-02-06T15:37:36.934Z,49.63
2019-02-06T15:40:35.617Z,49.27
2019-02-06T15:43:15.834Z,40.37
2019-02-06T15:45:58.014Z,32.33
2019-02-06T15:48:32.173Z,41.83
2019-02-06T15:51:35.353Z,41.80
2019-02-06T15:54:14.085Z,33.67
2019-02-06T15:57:06.428Z,38.93
2019-02-06T16:00:01.605Z,27.90
2019-02-06T16:02:45.207Z,26.73
2019-02-06T16:05:29.890Z,31.00
2019-02-06T16:08:04.272Z,25.33
2019-02-06T16:11:01.334Z,18.93
2019-02-06T16:13:58.386Z,27.43
2019-02-06T16:17:05.921Z,25.20
2019-02-06T16:20:05.214Z,32.13
2019-02-06T16:22:44.695Z,25.47
2019-02-06T16:25:21.771Z,23.87
2019-02-06T16:28:09.252Z,37.47
2019-02-06T16:31:10.160Z,32.53
2019-02-06T16:34:05.226Z,35.10
2019-02-06T16:36:43.786Z,29.63
2019-02-06T16:39:25.307Z,30.10
2019-02-06T16:42:02.602Z,27.47
2019-02-06T16:44:51.936Z,30.20
2019-02-06T16:47:26.401Z,26.53
2019-02-06T16:50:18.942Z,36.87
2019-02-06T16:53:20.839Z,48.23
2019-02-06T16:55:56.635Z,33.30
2019-02-06T16:58:48.811Z,30.33
2019-02-06T17:01:38.016Z,30.83
2019-02-06T17:04:21.247Z,36.43
2019-02-06T17:06:57.048Z,38.07
2019-02-06T17:09:52.772Z,44.50
2019-02-06T17:12:33.025Z,39.17
2019-02-06T17:15:13.165Z,38.67
2019-02-06T17:18:14.914Z,38.90
2019-02-06T17:21:14.933Z,34.67
2019-02-06T17:23:50.271Z,43.67
2019-02-06T17:26:36.688Z,35.47
2019-02-06T17:29:32.488Z,38.47
2019-02-06T17:32:12.721Z,38.70
2019-02-06T17:34:58.193Z,38.47
2019-02-06T17:37:44.328Z,50.30
2019-02-06T17:40:33.946Z,47.27
2019-02-06T17:43:08.371Z,35.43
2019-02-06T17:45:42.688Z,37.50
2019-02-06T17:48:36.445Z,37.93
2019-02-06T17:51:10.835Z,42.27
2019-02-06T17:53:54.295Z,41.53
2019-02-06T17:56:27.136Z,49.57
2019-02-06T17:58:58.405Z,60.37
2019-02-06T18:01:31.137Z,64.73
2019-02-06T18:04:02.426Z,52.10
2019-02-06T18:06:33.623Z,54.03
2019-02-06T18:09:08.013Z,76.80
2019-02-06T18:11:39.146Z,125.20
2019-02-06T18:14:10.413Z,137.17
2019-02-06T18:16:41.629Z,143.77
2019-02-06T18:19:12.789Z,147.40
2019-02-06T18:21:45.894Z,176.23
2019-02-06T18:24:16.845Z,208.93
2019-02-06T18:26:48.046Z,202.13
2019-02-06T18:29:19.205Z,181.07
2019-02-06T18:31:50.360Z,173.93
2019-02-06T18:34:21.473Z,186.97
2019-02-06T18:36:52.602Z,195.87
2019-02-06T18:39:23.848Z,189.77
2019-02-06T18:41:56.431Z,168.57
2019-02-06T18:44:27.730Z,176.70
2019-02-06T18:47:00.656Z,217.57
2019-02-06T18:49:31.935Z,183.07
2019-02-06T18:52:03.030Z,180.13
2019-02-06T18:54:34.252Z,182.57
2019-02-06T18:57:06.363Z,168.53
2019-02-06T18:59:37.514Z,158.17
2019-02-06T19:02:08.837Z,138.87
2019-02-06T19:04:40.068Z,134.43
2019-02-06T19:07:11.324Z,154.03
2019-02-06T19:09:42.793Z,146.83
2019-02-06T19:12:13.928Z,218.57
2019-02-06T19:14:45.239Z,151.33
2019-02-06T19:17:16.464Z,143.83
2019-02-06T19:19:47.598Z,137.03
2019-02-06T19:22:18.871Z,179.37
2019-02-06T19:24:50.403Z,197.57
2019-02-06T19:27:21.531Z,184.67
2019-02-06T19:29:52.610Z,201.47
2019-02-06T19:32:23.751Z,212.27
2019-02-06T19:34:55.006Z,145.77
2019-02-06T19:37:26.071Z,131.43
2019-02-06T19:39:57.488Z,161.73
2019-02-06T19:42:28.542Z,157.87
2019-02-06T19:44:59.697Z,190.37
2019-02-06T19:47:30.935Z,278.60
2019-02-06T19:50:02.271Z,250.90
2019-02-06T19:52:33.394Z,255.50
2019-02-06T19:55:06.504Z,204.10
2019-02-06T19:57:38.410Z,237.73
2019-02-06T20:00:12.713Z,260.20
2019-02-06T20:02:43.920Z,300.17
2019-02-06T20:05:17.171Z,308.97
2019-02-06T20:07:48.610Z,395.13
2019-02-06T20:10:35.577Z,400.10
2019-02-06T20:13:11.347Z,450.00
2019-02-06T20:15:40.843Z,314.57
2019-02-06T20:18:12.443Z,410.40
2019-02-06T20:20:46.830Z,380.40
2019-02-06T20:23:18.011Z,401.13
2019-02-06T20:25:50.275Z,464.17
2019-02-06T20:28:21.523Z,595.33
2019-02-06T20:30:54.346Z,556.87
2019-02-06T20:33:25.613Z,519.90
2019-02-06T20:35:56.928Z,459.07
2019-02-06T20:38:28.172Z,510.20
2019-02-06T20:40:59.575Z,314.87
2019-02-06T20:43:30.803Z,391.73
2019-02-06T20:46:02.968Z,270.97
2019-02-06T20:48:34.259Z,349.27
2019-02-06T20:51:05.593Z,401.60
2019-02-06T20:53:38.251Z,359.37
2019-02-06T20:56:09.581Z,366.23
2019-02-06T20:58:41.812Z,314.03
2019-02-06T21:01:13.422Z,324.97
2019-02-06T21:03:44.685Z,282.00
2019-02-06T21:06:16.203Z,379.47
2019-02-06T21:08:47.452Z,306.87
2019-02-06T21:11:18.727Z,313.50
2019-02-06T21:13:50.442Z,302.83
2019-02-06T21:16:21.766Z,315.37
2019-02-06T21:18:55.238Z,254.43
2019-02-06T21:22:02.574Z,213.60
2019-02-06T21:24:33.861Z,184.27
2019-02-06T21:27:05.234Z,176.23
2019-02-06T21:29:36.449Z,148.07
2019-02-06T21:32:07.688Z,137.60
2019-02-06T21:34:38.790Z,146.70
2019-02-06T21:37:10.022Z,130.53
2019-02-06T21:39:41.240Z,142.83
2019-02-06T21:42:12.522Z,128.20
2019-02-06T21:44:43.750Z,122.33
2019-02-06T21:47:15.407Z,128.87
2019-02-06T21:49:46.646Z,121.17
2019-02-06T21:52:17.841Z,117.23
2019-02-06T21:54:49.041Z,111.73
2019-02-06T21:57:20.276Z,117.87
2019-02-06T21:59:51.855Z,114.03
2019-02-06T22:02:23.142Z,112.53
2019-02-06T22:04:54.297Z,112.93
2019-02-06T22:07:25.513Z,110.07
2019-02-06T22:09:56.734Z,130.40
2019-02-06T22:12:28.193Z,146.77
2019-02-06T22:14:59.452Z,149.77
2019-02-06T22:17:30.613Z,160.27
2019-02-06T22:20:01.806Z,188.17
2019-02-06T22:22:33.960Z,422.17
2019-02-06T22:25:07.348Z,363.43
2019-02-06T22:27:38.687Z,462.60
2019-02-06T22:30:18.262Z,400.23
2019-02-06T22:32:50.437Z,464.63
2019-02-06T22:35:21.729Z,415.70
2019-02-06T22:37:52.944Z,338.77
2019-02-06T22:40:25.884Z,287.07
2019-02-06T22:42:58.083Z,265.00
2019-02-06T22:45:31.550Z,213.17
2019-02-06T22:48:04.103Z,222.43
2019-02-06T22:50:35.187Z,256.47
2019-02-06T22:53:06.297Z,204.17
2019-02-06T22:55:37.422Z,156.00
2019-02-06T22:58:08.607Z,159.10
2019-02-06T23:01:11.187Z,171.67
2019-02-06T23:03:42.350Z,151.27
2019-02-06T23:06:13.670Z,173.33
2019-02-06T23:08:45.313Z,162.20
2019-02-06T23:11:16.555Z,155.23
2019-02-06T23:13:48.629Z,164.77
2019-02-06T23:16:21.278Z,154.83
2019-02-06T23:18:52.554Z,148.87
2019-02-06T23:21:25.600Z,157.77
2019-02-06T23:23:56.793Z,144.90
2019-02-06T23:26:28.017Z,139.23
2019-02-06T23:28:59.275Z,126.50
2019-02-06T23:31:30.483Z,133.83
2019-02-06T23:34:01.735Z,127.07
2019-02-06T23:36:32.962Z,102.90
2019-02-06T23:39:05.228Z,112.53
2019-02-06T23:41:37.880Z,110.83
2019-02-06T23:44:09.051Z,128.43
2019-02-06T23:46:40.200Z,127.13
2019-02-06T23:49:11.394Z,125.73
2019-02-06T23:51:42.622Z,144.20
2019-02-06T23:54:13.808Z,116.60
2019-02-06T23:56:45.034Z,116.00
2019-02-06T23:59:16.615Z,108.87
